^^
Saratoga-Weather Station Historical Data
Daily Summary for February 24, 2021 Units:  Metric    English   Both
Daily Weekly Monthly Yearly Custom
  High: Low: Average:
Temperature: 8.8 °C 6.7 °C 8 °C
Dew Point: 8 °C 5 °C 7.1 °C
Humidity: 97% 87% 94%
Wind Speed: 6.4km/h 0km/h 1.4km/h
Wind Gust: 14.5km/h - -
Wind- - West
Pressure: 1010.5 hPa 1003.7 hPa -
Precipitation: 5.8 mm    
Historical Graphs
 
 
Tabular Data for February 24, 2021
Time Temperature Dew Point Pressure Wind Wind Speed Wind Gust Humidity Rainfall Rate (Hourly) solar
00:03 7.3 °C 5.3 °C 1010.5 hPa Calm   3.2 km/h 87% 0.0 mm 0 W/m2
00:08 7 °C 5.1 °C 1010.5 hPa Calm     88% 0.0 mm 0 W/m2
00:13 6.8 °C 5.1 °C 1010.5 hPa Calm   1.6 km/h 89% 0.0 mm 0 W/m2
00:18 6.7 °C 5 °C 1010.5 hPa Calm     89% 0.0 mm 0 W/m2
00:23 6.7 °C 5.2 °C 1010.5 hPa Calm   4.8 km/h 90% 0.0 mm 0 W/m2
00:28 6.9 °C 5.5 °C 1010.5 hPa Calm   1.6 km/h 91% 0.0 mm 0 W/m2
00:33 7.3 °C 5.9 °C 1010.5 hPa NW 1.4 km/h 3.2 km/h 91% 0.0 mm 0 W/m2
00:38 7.7 °C 6.2 °C 1010.5 hPa NW 3.2 km/h 9.7 km/h 90% 0.0 mm 0 W/m2
00:43 8.1 °C 6.4 °C 1010.5 hPa NW 6.4 km/h 6.4 km/h 89% 0.0 mm 0 W/m2
00:48 8.4 °C 6.5 °C 1010.5 hPa Calm   9.7 km/h 88% 0.0 mm 0 W/m2
00:53 8.4 °C 6.4 °C 1010.2 hPa NNW 3.2 km/h 4.8 km/h 87% 0.0 mm 0 W/m2
00:58 8.5 °C 6.5 °C 1010.2 hPa Calm   6.4 km/h 87% 0.0 mm 0 W/m2
01:03 8.5 °C 6.5 °C 1010.2 hPa NW 1.4 km/h 14.5 km/h 87% 0.0 mm 0 W/m2
01:08 8.5 °C 6.5 °C 1010.2 hPa NNW 4.7 km/h 6.4 km/h 87% 0.0 mm 0 W/m2
01:13 8.5 °C 6.5 °C 1010.2 hPa NW 3.2 km/h 14.5 km/h 87% 0.0 mm 0 W/m2
01:18 8.4 °C 6.4 °C 1010.2 hPa Calm   4.8 km/h 87% 0.0 mm 0 W/m2
01:23 8.3 °C 6.4 °C 1010.2 hPa NW 3.2 km/h 8 km/h 88% 0.0 mm 0 W/m2
01:28 8.2 °C 6.3 °C 1010.2 hPa WNW 4.7 km/h 4.8 km/h 88% 0.0 mm 0 W/m2
01:33 8.1 °C 6.4 °C 1010.2 hPa WSW 1.4 km/h 8 km/h 89% 0.0 mm 0 W/m2
01:38 8 °C 6.5 °C 1010.2 hPa NW 1.4 km/h 6.4 km/h 90% 0.0 mm 0 W/m2
01:43 7.9 °C 6.4 °C 1010.2 hPa Calm   3.2 km/h 90% 0.0 mm 0 W/m2
01:48 7.8 °C 6.4 °C 1010.2 hPa Calm   6.4 km/h 91% 0.0 mm 0 W/m2
01:53 7.7 °C 6.3 °C 1009.8 hPa Calm   4.8 km/h 91% 0.0 mm 0 W/m2
01:58 7.6 °C 6.4 °C 1009.8 hPa WSW 3.2 km/h 6.4 km/h 92% 0.0 mm 0 W/m2
02:03 7.6 °C 6.4 °C 1009.8 hPa WNW 6.4 km/h 9.7 km/h 92% 0.0 mm 0 W/m2
02:08 7.7 °C 6.5 °C 1009.8 hPa NW 3.2 km/h 4.8 km/h 92% 0.0 mm 0 W/m2
02:13 7.7 °C 6.5 °C 1009.8 hPa WNW 3.2 km/h 4.8 km/h 92% 0.0 mm 0 W/m2
02:18 7.7 °C 6.5 °C 1009.8 hPa Calm   1.6 km/h 92% 0.0 mm 0 W/m2
02:23 7.7 °C 6.5 °C 1009.8 hPa Calm   1.6 km/h 92% 0.0 mm 0 W/m2
02:28 7.7 °C 6.5 °C 1009.8 hPa WSW 3.2 km/h 4.8 km/h 92% 0.0 mm 0 W/m2
02:33 7.7 °C 6.5 °C 1009.5 hPa Calm   4.8 km/h 92% 0.0 mm 0 W/m2
02:38 7.7 °C 6.5 °C 1009.5 hPa WNW 1.4 km/h 8 km/h 92% 0.0 mm 0 W/m2
02:43 7.7 °C 6.5 °C 1009.5 hPa Calm   1.6 km/h 92% 0.0 mm 0 W/m2
02:48 7.6 °C 6.4 °C 1009.5 hPa WNW 4.7 km/h 6.4 km/h 92% 0.0 mm 0 W/m2
02:53 7.6 °C 6.4 °C 1009.5 hPa Calm   1.6 km/h 92% 0.0 mm 0 W/m2
02:58 7.7 °C 6.5 °C 1009.5 hPa Calm   3.2 km/h 92% 0.0 mm 0 W/m2
03:03 7.7 °C 6.5 °C 1009.5 hPa Calm   6.4 km/h 92% 0.0 mm 0 W/m2
03:08 7.7 °C 6.5 °C 1009.5 hPa NW 1.4 km/h 4.8 km/h 92% 0.0 mm 0 W/m2
03:13 7.7 °C 6.5 °C 1009.5 hPa Calm   6.4 km/h 92% 0.0 mm 0 W/m2
03:18 7.8 °C 6.6 °C 1009.5 hPa WSW 4.7 km/h 4.8 km/h 92% 0.0 mm 0 W/m2
03:23 7.8 °C 6.6 °C 1009.5 hPa Calm   6.4 km/h 92% 0.0 mm 0 W/m2
03:28 7.8 °C 6.6 °C 1009.1 hPa Calm     92% 0.0 mm 0 W/m2
03:33 7.7 °C 6.5 °C 1009.1 hPa WSW 3.2 km/h 6.4 km/h 92% 0.0 mm 0 W/m2
03:38 7.7 °C 6.5 °C 1008.8 hPa West 1.4 km/h 3.2 km/h 92% 0.0 mm 0 W/m2
03:43 7.7 °C 6.5 °C 1008.8 hPa Calm   1.6 km/h 92% 0.0 mm 0 W/m2
03:48 7.7 °C 6.5 °C 1009.1 hPa Calm   1.6 km/h 92% 0.0 mm 0 W/m2
03:53 7.6 °C 6.5 °C 1009.1 hPa Calm   3.2 km/h 93% 0.0 mm 0 W/m2
03:58 7.7 °C 6.6 °C 1009.1 hPa Calm   3.2 km/h 93% 0.0 mm 0 W/m2
04:03 7.6 °C 6.5 °C 1008.8 hPa SSE 6.4 km/h 6.4 km/h 93% 0.0 mm 0 W/m2
04:08 7.7 °C 6.6 °C 1008.8 hPa NW 3.2 km/h 4.8 km/h 93% 0.0 mm 0 W/m2
04:13 7.6 °C 6.5 °C 1008.8 hPa NNW 4.7 km/h 4.8 km/h 93% 0.0 mm 0 W/m2
04:18 7.6 °C 6.5 °C 1008.8 hPa Calm   3.2 km/h 93% 0.0 mm 0 W/m2
04:23 7.6 °C 6.5 °C 1008.8 hPa Calm   4.8 km/h 93% 0.0 mm 0 W/m2
04:28 7.6 °C 6.5 °C 1008.8 hPa NW 1.4 km/h 3.2 km/h 93% 0.0 mm 0 W/m2
04:33 7.7 °C 6.6 °C 1008.8 hPa Calm   6.4 km/h 93% 0.0 mm 0 W/m2
04:38 7.7 °C 6.6 °C 1008.8 hPa Calm   6.4 km/h 93% 0.0 mm 0 W/m2
04:43 7.7 °C 6.5 °C 1008.5 hPa Calm   1.6 km/h 92% 0.0 mm 0 W/m2
04:48 7.7 °C 6.5 °C 1008.5 hPa Calm   4.8 km/h 92% 0.0 mm 0 W/m2
04:53 7.7 °C 6.5 °C 1008.5 hPa North 4.7 km/h 4.8 km/h 92% 0.0 mm 0 W/m2
04:58 7.7 °C 6.5 °C 1008.5 hPa West 3.2 km/h 3.2 km/h 92% 0.0 mm 0 W/m2
05:03 7.7 °C 6.5 °C 1008.5 hPa North 4.7 km/h 4.8 km/h 92% 0.0 mm 0 W/m2
05:08 7.7 °C 6.5 °C 1008.5 hPa Calm     92% 0.0 mm 0 W/m2
05:13 7.7 °C 6.5 °C 1008.5 hPa SW 4.8 km/h 4.8 km/h 92% 0.0 mm 0 W/m2
05:18 7.6 °C 6.4 °C 1008.5 hPa WNW 1.4 km/h 3.2 km/h 92% 0.0 mm 0 W/m2
05:23 7.6 °C 6.4 °C 1008.5 hPa Calm   3.2 km/h 92% 0.0 mm 0 W/m2
05:28 7.6 °C 6.4 °C 1008.5 hPa Calm   1.6 km/h 92% 0.0 mm 0 W/m2
05:33 7.5 °C 6.3 °C 1008.5 hPa Calm     92% 0.0 mm 0 W/m2
05:38 7.6 °C 6.5 °C 1008.5 hPa WNW 1.4 km/h 4.8 km/h 93% 0.0 mm 0 W/m2
05:43 7.7 °C 6.5 °C 1008.5 hPa West 6.4 km/h 6.4 km/h 92% 0.0 mm 0 W/m2
05:48 7.7 °C 6.5 °C 1008.1 hPa West 6.4 km/h 11.3 km/h 92% 0.0 mm 0 W/m2
05:53 7.8 °C 6.6 °C 1008.1 hPa NNW 3.2 km/h 4.8 km/h 92% 0.0 mm 0 W/m2
05:58 7.8 °C 6.6 °C 1008.1 hPa SSE 1.4 km/h 9.7 km/h 92% 0.0 mm 0 W/m2
06:03 7.8 °C 6.6 °C 1008.1 hPa Calm   6.4 km/h 92% 0.0 mm 0 W/m2
06:08 7.8 °C 6.6 °C 1008.1 hPa Calm   8 km/h 92% 0.0 mm 0 W/m2
06:13 7.8 °C 6.6 °C 1008.5 hPa Calm   8 km/h 92% 0.0 mm 0 W/m2
06:18 7.8 °C 6.6 °C 1008.5 hPa SW 3.2 km/h 8 km/h 92% 0.0 mm 0 W/m2
06:23 7.8 °C 6.6 °C 1008.5 hPa West 4.7 km/h 6.4 km/h 92% 0.0 mm 0 W/m2
06:28 7.9 °C 6.7 °C 1008.5 hPa NW 3.2 km/h 4.8 km/h 92% 0.0 mm 0 W/m2
06:33 7.9 °C 6.7 °C 1008.5 hPa NW 4.7 km/h 6.4 km/h 92% 0.0 mm 0 W/m2
06:38 7.9 °C 6.7 °C 1008.5 hPa NNW 1.4 km/h 4.8 km/h 92% 0.0 mm 0 W/m2
06:43 7.9 °C 6.7 °C 1008.5 hPa Calm   3.2 km/h 92% 0.0 mm 0 W/m2
06:48 7.8 °C 6.6 °C 1008.5 hPa West 1.4 km/h 4.8 km/h 92% 0.0 mm 0 W/m2
06:53 7.8 °C 6.6 °C 1008.1 hPa NW 1.4 km/h 4.8 km/h 92% 0.0 mm 0 W/m2
06:58 7.8 °C 6.6 °C 1008.5 hPa SW 3.2 km/h 3.2 km/h 92% 0.0 mm 0 W/m2
07:03 7.8 °C 6.6 °C 1008.5 hPa WNW 1.4 km/h 4.8 km/h 92% 0.0 mm 0 W/m2
07:09 7.8 °C 6.6 °C 1008.5 hPa Calm   3.2 km/h 92% 0.0 mm 0 W/m2
07:14 7.8 °C 6.6 °C 1008.5 hPa SSW 1.4 km/h 6.4 km/h 92% 0.0 mm 0 W/m2
07:19 7.8 °C 6.7 °C 1008.1 hPa Calm   1.6 km/h 93% 0.0 mm 0 W/m2
07:24 7.7 °C 6.6 °C 1008.1 hPa NW 3.2 km/h 4.8 km/h 93% 0.0 mm 0 W/m2
07:29 7.7 °C 6.6 °C 1008.1 hPa Calm   6.4 km/h 93% 0.0 mm 0 W/m2
07:34 7.7 °C 6.6 °C 1008.1 hPa NW 3.2 km/h 3.2 km/h 93% 0.0 mm 0 W/m2
07:39 7.7 °C 6.6 °C 1008.1 hPa Calm   6.4 km/h 93% 0.0 mm 0 W/m2
07:44 7.6 °C 6.5 °C 1008.1 hPa North 1.4 km/h 4.8 km/h 93% 0.0 mm 0 W/m2
07:49 7.6 °C 6.5 °C 1008.1 hPa WNW 1.4 km/h 3.2 km/h 93% 0.0 mm 0 W/m2
07:54 7.6 °C 6.5 °C 1008.1 hPa Calm   4.8 km/h 93% 0.0 mm 0 W/m2
07:59 7.6 °C 6.5 °C 1008.1 hPa Calm     93% 0.0 mm 0 W/m2
08:04 7.6 °C 6.5 °C 1008.1 hPa Calm     93% 0.2 mm 0 W/m2
08:09 7.5 °C 6.4 °C 1008.1 hPa Calm   3.2 km/h 93% 0.2 mm 0 W/m2
08:14 7.5 °C 6.4 °C 1008.1 hPa Calm   1.6 km/h 93% 0.2 mm 0 W/m2
08:19 7.4 °C 6.5 °C 1008.1 hPa Calm   3.2 km/h 94% 0.2 mm 0 W/m2
08:24 7.4 °C 6.5 °C 1008.1 hPa Calm   1.6 km/h 94% 0.2 mm 0 W/m2
08:29 7.4 °C 6.5 °C 1008.1 hPa Calm   1.6 km/h 94% 0.2 mm 0 W/m2
08:34 7.4 °C 6.5 °C 1008.1 hPa NW 1.4 km/h 3.2 km/h 94% 0.2 mm 0 W/m2
08:39 7.4 °C 6.5 °C 1008.1 hPa NW 1.4 km/h 8 km/h 94% 0.2 mm 0 W/m2
08:44 7.4 °C 6.5 °C 1008.1 hPa NW 3.2 km/h 4.8 km/h 94% 0.2 mm 0 W/m2
08:49 7.4 °C 6.5 °C 1008.1 hPa NW 1.4 km/h 6.4 km/h 94% 0.2 mm 0 W/m2
08:54 7.4 °C 6.5 °C 1008.1 hPa Calm     94% 0.2 mm 0 W/m2
08:59 7.4 °C 6.5 °C 1008.1 hPa Calm     94% 0.2 mm 0 W/m2
09:04 7.3 °C 6.4 °C 1008.1 hPa Calm   3.2 km/h 94% 0.0 mm 0 W/m2
09:09 7.4 °C 6.5 °C 1008.1 hPa Calm     94% 0.0 mm 5 W/m2
09:14 7.4 °C 6.5 °C 1008.1 hPa Calm     94% 0.0 mm 5 W/m2
09:19 7.3 °C 6.4 °C 1007.8 hPa Calm   3.2 km/h 94% 0.0 mm 5 W/m2
09:24 7.3 °C 6.4 °C 1007.8 hPa Calm   1.6 km/h 94% 0.0 mm 5 W/m2
09:29 7.3 °C 6.6 °C 1007.8 hPa ENE 1.4 km/h 4.8 km/h 95% 0.0 mm 7 W/m2
09:34 7.3 °C 6.6 °C 1007.8 hPa Calm   1.6 km/h 95% 0.0 mm 9 W/m2
09:39 7.3 °C 6.6 °C 1007.8 hPa Calm   4.8 km/h 95% 0.0 mm 7 W/m2
09:44 7.3 °C 6.6 °C 1007.8 hPa Calm     95% 0.0 mm 7 W/m2
09:49 7.3 °C 6.6 °C 1007.8 hPa North 1.4 km/h 3.2 km/h 95% 0.0 mm 9 W/m2
09:54 7.3 °C 6.6 °C 1007.8 hPa Calm   3.2 km/h 95% 0.0 mm 11 W/m2
09:59 7.4 °C 6.7 °C 1007.8 hPa Calm   1.6 km/h 95% 0.0 mm 12 W/m2
10:04 7.4 °C 6.7 °C 1007.8 hPa Calm     95% 0.0 mm 12 W/m2
10:09 7.4 °C 6.7 °C 1007.8 hPa Calm   6.4 km/h 95% 0.0 mm 12 W/m2
10:14 7.4 °C 6.7 °C 1007.5 hPa Calm     95% 0.0 mm 14 W/m2
10:19 7.4 °C 6.7 °C 1007.8 hPa Calm   6.4 km/h 95% 0.0 mm 14 W/m2
10:24 7.5 °C 6.8 °C 1007.8 hPa Calm   1.6 km/h 95% 0.0 mm 14 W/m2
10:29 7.5 °C 6.8 °C 1007.5 hPa Calm   4.8 km/h 95% 0.0 mm 18 W/m2
10:34 7.5 °C 6.8 °C 1007.8 hPa Calm   1.6 km/h 95% 0.0 mm 16 W/m2
10:39 7.6 °C 6.9 °C 1007.5 hPa Calm   3.2 km/h 95% 0.0 mm 14 W/m2
10:44 7.6 °C 6.9 °C 1007.5 hPa West 4.7 km/h 9.7 km/h 95% 0.0 mm 25 W/m2
10:49 7.6 °C 7 °C 1007.5 hPa WSW 1.4 km/h 6.4 km/h 96% 0.0 mm 25 W/m2
10:54 7.7 °C 7.1 °C 1007.5 hPa WNW 1.4 km/h 3.2 km/h 96% 0.0 mm 28 W/m2
10:59 7.7 °C 7.1 °C 1007.5 hPa NW 1.4 km/h 8 km/h 96% 0.0 mm 33 W/m2
11:04 7.7 °C 7.1 °C 1007.5 hPa NNW 3.2 km/h 4.8 km/h 96% 0.0 mm 33 W/m2
11:09 7.8 °C 7.2 °C 1007.5 hPa WNW 1.4 km/h 8 km/h 96% 0.0 mm 21 W/m2
11:14 7.8 °C 7.2 °C 1007.5 hPa WNW 3.2 km/h 4.8 km/h 96% 0.0 mm 14 W/m2
11:19 7.8 °C 7.2 °C 1007.5 hPa Calm   6.4 km/h 96% 0.0 mm 14 W/m2
11:24 7.8 °C 7.2 °C 1007.1 hPa Calm     96% 0.0 mm 12 W/m2
11:29 7.8 °C 7.2 °C 1007.1 hPa Calm   3.2 km/h 96% 0.0 mm 19 W/m2
11:34 7.9 °C 7.3 °C 1007.1 hPa WNW 3.2 km/h 6.4 km/h 96% 0.0 mm 18 W/m2
11:39 7.9 °C 7.3 °C 1007.1 hPa NW 4.7 km/h 4.8 km/h 96% 0.0 mm 21 W/m2
11:44 7.9 °C 7.3 °C 1007.1 hPa NW 1.4 km/h 4.8 km/h 96% 0.2 mm 21 W/m2
11:49 8 °C 7.2 °C 1007.1 hPa Calm   6.4 km/h 95% 0.5 mm 30 W/m2
11:54 8 °C 7.2 °C 1007.1 hPa Calm   3.2 km/h 95% 0.8 mm 39 W/m2
11:59 8 °C 7.2 °C 1006.8 hPa NW 1.4 km/h 4.8 km/h 95% 0.8 mm 44 W/m2
12:04 8.1 °C 7.3 °C 1007.1 hPa West 3.2 km/h 8 km/h 95% 1.0 mm 65 W/m2
12:09 8.2 °C 7.6 °C 1006.8 hPa NW 3.2 km/h 6.4 km/h 96% 1.3 mm 111 W/m2
12:14 8.2 °C 7.6 °C 1006.8 hPa NW 3.2 km/h 8 km/h 96% 1.3 mm 144 W/m2
12:19 8.3 °C 7.5 °C 1006.8 hPa WNW 3.2 km/h 4.8 km/h 95% 1.3 mm 104 W/m2
12:24 8.4 °C 7.6 °C 1006.4 hPa West 1.4 km/h 4.8 km/h 95% 1.3 mm 90 W/m2
12:29 8.4 °C 7.6 °C 1006.4 hPa ENE 3.2 km/h 3.2 km/h 95% 1.5 mm 81 W/m2
12:34 8.5 °C 7.7 °C 1006.4 hPa WSW 3.2 km/h 4.8 km/h 95% 1.5 mm 70 W/m2
12:39 8.6 °C 7.8 °C 1006.4 hPa SW 1.4 km/h 6.4 km/h 95% 1.5 mm 84 W/m2
12:44 8.6 °C 7.8 °C 1006.4 hPa Calm   11.3 km/h 95% 1.3 mm 47 W/m2
12:49 8.6 °C 7.8 °C 1006.4 hPa NW 1.4 km/h 4.8 km/h 95% 1.0 mm 26 W/m2
12:54 8.5 °C 7.7 °C 1006.1 hPa West 1.4 km/h 11.3 km/h 95% 0.8 mm 25 W/m2
12:59 8.5 °C 7.7 °C 1006.1 hPa Calm   4.8 km/h 95% 1.3 mm 97 W/m2
13:04 8.6 °C 7.8 °C 1006.1 hPa WSW 3.2 km/h 6.4 km/h 95% 1.3 mm 125 W/m2
13:09 8.6 °C 7.8 °C 1006.1 hPa NW 1.4 km/h 3.2 km/h 95% 1.0 mm 72 W/m2
13:14 8.6 °C 7.8 °C 1006.1 hPa WNW 4.7 km/h 11.3 km/h 95% 1.0 mm 83 W/m2
13:19 8.6 °C 7.8 °C 1006.1 hPa WNW 4.7 km/h 4.8 km/h 95% 1.3 mm 79 W/m2
13:24 8.6 °C 7.8 °C 1005.8 hPa WNW 3.2 km/h 11.3 km/h 95% 1.3 mm 53 W/m2
13:29 8.6 °C 7.8 °C 1005.8 hPa WNW 3.2 km/h 8 km/h 95% 1.0 mm 60 W/m2
13:34 8.6 °C 7.8 °C 1005.8 hPa SW 3.2 km/h 4.8 km/h 95% 1.0 mm 70 W/m2
13:39 8.6 °C 7.8 °C 1005.8 hPa WNW 3.2 km/h 6.4 km/h 95% 1.0 mm 56 W/m2
13:44 8.7 °C 7.9 °C 1005.8 hPa West 3.2 km/h 9.7 km/h 95% 1.3 mm 79 W/m2
13:49 8.7 °C 7.9 °C 1005.8 hPa WNW 1.4 km/h 3.2 km/h 95% 1.5 mm 113 W/m2
13:54 8.7 °C 7.9 °C 1005.8 hPa Calm   3.2 km/h 95% 1.5 mm 90 W/m2
14:00 8.7 °C 7.9 °C 1005.4 hPa WSW 1.4 km/h 3.2 km/h 95% 1.0 mm 60 W/m2
14:05 8.8 °C 8 °C 1005.4 hPa WNW 4.7 km/h 4.8 km/h 95% 0.8 mm 51 W/m2
14:10 8.8 °C 8 °C 1005.4 hPa NW 3.2 km/h 4.8 km/h 95% 0.8 mm 44 W/m2
14:15 8.8 °C 8 °C 1005.4 hPa NW 1.4 km/h 3.2 km/h 95% 1.0 mm 49 W/m2
14:20 8.8 °C 8 °C 1005.4 hPa Calm   4.8 km/h 95% 0.8 mm 39 W/m2
14:25 8.8 °C 8 °C 1005.4 hPa NNW 1.4 km/h 3.2 km/h 95% 0.8 mm 37 W/m2
14:30 8.8 °C 8 °C 1005.4 hPa SW 3.2 km/h 4.8 km/h 95% 0.8 mm 42 W/m2
14:35 8.8 °C 8 °C 1005.4 hPa WSW 4.7 km/h 4.8 km/h 95% 0.8 mm 46 W/m2
14:40 8.8 °C 8 °C 1005.4 hPa SE 1.4 km/h 6.4 km/h 95% 0.8 mm 33 W/m2
14:45 8.8 °C 8 °C 1005.1 hPa Calm   1.6 km/h 95% 0.5 mm 39 W/m2
14:50 8.8 °C 8 °C 1005.4 hPa West 4.7 km/h 11.3 km/h 95% 0.5 mm 44 W/m2
14:55 8.8 °C 8 °C 1005.4 hPa NW 3.2 km/h 3.2 km/h 95% 0.2 mm 30 W/m2
15:00 8.8 °C 8 °C 1005.4 hPa West 3.2 km/h 4.8 km/h 95% 0.5 mm 26 W/m2
15:05 8.8 °C 8 °C 1005.1 hPa WNW 3.2 km/h 3.2 km/h 95% 0.5 mm 19 W/m2
15:10 8.8 °C 8 °C 1005.1 hPa Calm   3.2 km/h 95% 0.5 mm 25 W/m2
15:15 8.8 °C 8 °C 1005.1 hPa Calm   1.6 km/h 95% 0.2 mm 21 W/m2
15:20 8.8 °C 8 °C 1005.1 hPa Calm   1.6 km/h 95% 0.2 mm 25 W/m2
15:25 8.8 °C 8 °C 1005.1 hPa NNW 4.7 km/h 4.8 km/h 95% 0.5 mm 18 W/m2
15:30 8.8 °C 8 °C 1005.1 hPa Calm     95% 0.5 mm 14 W/m2
15:35 8.8 °C 8 °C 1005.1 hPa Calm     95% 0.5 mm 11 W/m2
15:40 8.8 °C 8 °C 1005.1 hPa Calm   4.8 km/h 95% 0.5 mm 7 W/m2
15:45 8.8 °C 8 °C 1005.1 hPa Calm   3.2 km/h 95% 0.5 mm 9 W/m2
15:50 8.8 °C 8 °C 1005.1 hPa SW 1.4 km/h 4.8 km/h 95% 0.5 mm 12 W/m2
15:55 8.8 °C 8 °C 1005.1 hPa SW 1.4 km/h 3.2 km/h 95% 0.5 mm 9 W/m2
16:00 8.8 °C 8 °C 1005.1 hPa SW 3.2 km/h 11.3 km/h 95% 0.2 mm 7 W/m2
16:05 8.8 °C 8 °C 1005.1 hPa Calm   3.2 km/h 95% 0.2 mm 7 W/m2
16:10 8.8 °C 8 °C 1005.1 hPa NW 3.2 km/h 6.4 km/h 95% 0.2 mm 9 W/m2
16:15 8.8 °C 8 °C 1005.1 hPa Calm   3.2 km/h 95% 0.5 mm 9 W/m2
16:20 8.8 °C 8 °C 1005.1 hPa Calm     95% 0.5 mm 7 W/m2
16:25 8.8 °C 8 °C 1005.1 hPa NNW 1.4 km/h 3.2 km/h 95% 0.5 mm 0 W/m2
16:30 8.8 °C 8 °C 1005.1 hPa WNW 1.4 km/h 1.6 km/h 95% 0.5 mm 0 W/m2
16:35 8.8 °C 8 °C 1005.1 hPa West 6.4 km/h 6.4 km/h 95% 0.5 mm 0 W/m2
16:40 8.8 °C 8 °C 1005.1 hPa WNW 6.4 km/h 6.4 km/h 95% 0.5 mm 0 W/m2
16:45 8.8 °C 8 °C 1005.1 hPa West 1.4 km/h 4.8 km/h 95% 0.5 mm 0 W/m2
16:50 8.8 °C 8 °C 1005.1 hPa Calm     95% 0.5 mm 0 W/m2
16:55 8.8 °C 8 °C 1005.1 hPa Calm   1.6 km/h 95% 0.5 mm 0 W/m2
17:00 8.7 °C 7.9 °C 1005.1 hPa Calm   3.2 km/h 95% 0.5 mm 0 W/m2
17:05 8.7 °C 7.9 °C 1005.1 hPa Calm   3.2 km/h 95% 0.5 mm 0 W/m2
17:10 8.7 °C 7.9 °C 1005.1 hPa West 1.4 km/h 4.8 km/h 95% 0.5 mm 0 W/m2
17:15 8.7 °C 7.9 °C 1005.1 hPa NW 1.4 km/h 6.4 km/h 95% 0.5 mm 0 W/m2
17:20 8.7 °C 7.9 °C 1005.1 hPa West 4.7 km/h 6.4 km/h 95% 0.8 mm 0 W/m2
17:25 8.7 °C 7.9 °C 1005.1 hPa West 3.2 km/h 4.8 km/h 95% 1.0 mm 0 W/m2
17:30 8.6 °C 7.8 °C 1005.1 hPa Calm   3.2 km/h 95% 1.0 mm 0 W/m2
17:35 8.6 °C 7.8 °C 1005.1 hPa West 1.4 km/h 4.8 km/h 95% 1.3 mm 0 W/m2
17:40 8.6 °C 8 °C 1005.1 hPa Calm   4.8 km/h 96% 1.5 mm 0 W/m2
17:45 8.6 °C 8 °C 1005.1 hPa West 3.2 km/h 9.7 km/h 96% 1.5 mm 0 W/m2
17:50 8.6 °C 8 °C 1004.7 hPa West 1.4 km/h 3.2 km/h 96% 1.5 mm 0 W/m2
17:55 8.5 °C 7.9 °C 1004.7 hPa Calm   9.7 km/h 96% 1.5 mm 0 W/m2
18:01 8.4 °C 7.8 °C 1004.7 hPa Calm   1.6 km/h 96% 1.5 mm 0 W/m2
18:06 8.4 °C 7.8 °C 1004.7 hPa Calm   1.6 km/h 96% 1.5 mm 0 W/m2
18:11 8.4 °C 7.8 °C 1004.7 hPa Calm     96% 1.5 mm 0 W/m2
18:16 8.4 °C 7.8 °C 1004.7 hPa Calm     96% 1.3 mm 0 W/m2
18:21 8.4 °C 7.8 °C 1004.7 hPa West 1.4 km/h 3.2 km/h 96% 1.0 mm 0 W/m2
18:26 8.4 °C 7.8 °C 1004.7 hPa Calm     96% 0.5 mm 0 W/m2
18:31 8.4 °C 7.8 °C 1004.7 hPa WSW 4.7 km/h 8 km/h 96% 0.5 mm 0 W/m2
18:36 8.4 °C 7.8 °C 1004.7 hPa West 3.2 km/h 3.2 km/h 96% 0.5 mm 0 W/m2
18:41 8.4 °C 7.8 °C 1004.7 hPa West 3.2 km/h 4.8 km/h 96% 0.2 mm 0 W/m2
18:46 8.4 °C 7.8 °C 1004.7 hPa Calm   4.8 km/h 96% 0.2 mm 0 W/m2
18:51 8.4 °C 7.8 °C 1004.7 hPa West 1.4 km/h 1.6 km/h 96% 0.2 mm 0 W/m2
18:56 8.4 °C 7.8 °C 1005.1 hPa WNW 3.2 km/h 9.7 km/h 96% 0.2 mm 0 W/m2
19:01 8.4 °C 7.8 °C 1005.1 hPa West 4.7 km/h 4.8 km/h 96% 0.0 mm 0 W/m2
19:06 8.4 °C 7.8 °C 1005.1 hPa WSW 1.4 km/h 6.4 km/h 96% 0.0 mm 0 W/m2
19:11 8.4 °C 7.8 °C 1005.1 hPa NW 3.2 km/h 6.4 km/h 96% 0.0 mm 0 W/m2
19:16 8.4 °C 7.8 °C 1004.7 hPa West 3.2 km/h 11.3 km/h 96% 0.0 mm 0 W/m2
19:21 8.4 °C 7.8 °C 1004.7 hPa West 3.2 km/h 3.2 km/h 96% 0.0 mm 0 W/m2
19:26 8.3 °C 7.7 °C 1004.7 hPa West 3.2 km/h 9.7 km/h 96% 0.0 mm 0 W/m2
19:31 8.3 °C 7.7 °C 1004.7 hPa West 1.4 km/h 4.8 km/h 96% 0.0 mm 0 W/m2
19:36 8.4 °C 7.8 °C 1004.7 hPa Calm   6.4 km/h 96% 0.0 mm 0 W/m2
19:41 8.3 °C 7.7 °C 1004.7 hPa Calm     96% 0.0 mm 0 W/m2
19:46 8.3 °C 7.7 °C 1004.7 hPa Calm   3.2 km/h 96% 0.0 mm 0 W/m2
19:51 8.3 °C 7.7 °C 1004.7 hPa Calm     96% 0.0 mm 0 W/m2
19:56 8.3 °C 7.7 °C 1004.7 hPa WNW 1.4 km/h 1.6 km/h 96% 0.0 mm 0 W/m2
20:01 8.3 °C 7.7 °C 1004.7 hPa Calm   3.2 km/h 96% 0.0 mm 0 W/m2
20:06 8.3 °C 7.7 °C 1004.7 hPa Calm   1.6 km/h 96% 0.0 mm 0 W/m2
20:11 8.3 °C 7.7 °C 1004.7 hPa WNW 1.4 km/h 3.2 km/h 96% 0.0 mm 0 W/m2
20:16 8.3 °C 7.7 °C 1004.7 hPa Calm   1.6 km/h 96% 0.0 mm 0 W/m2
20:21 8.3 °C 7.7 °C 1004.7 hPa Calm     96% 0.0 mm 0 W/m2
20:26 8.2 °C 7.6 °C 1004.7 hPa Calm     96% 0.0 mm 0 W/m2
20:31 8.2 °C 7.6 °C 1004.7 hPa Calm     96% 0.0 mm 0 W/m2
20:36 8.2 °C 7.6 °C 1004.7 hPa Calm   1.6 km/h 96% 0.0 mm 0 W/m2
20:41 8.2 °C 7.6 °C 1004.7 hPa Calm     96% 0.0 mm 0 W/m2
20:46 8.2 °C 7.6 °C 1004.7 hPa Calm   1.6 km/h 96% 0.0 mm 0 W/m2
20:51 8.2 °C 7.6 °C 1004.7 hPa Calm   3.2 km/h 96% 0.0 mm 0 W/m2
20:56 8.2 °C 7.6 °C 1004.7 hPa NW 3.2 km/h 3.2 km/h 96% 0.0 mm 0 W/m2
21:01 8.2 °C 7.6 °C 1004.7 hPa Calm   1.6 km/h 96% 0.0 mm 0 W/m2
21:06 8.2 °C 7.6 °C 1004.7 hPa Calm   1.6 km/h 96% 0.0 mm 0 W/m2
21:11 8.2 °C 7.6 °C 1004.7 hPa NW 1.4 km/h 3.2 km/h 96% 0.0 mm 0 W/m2
21:16 8.2 °C 7.6 °C 1004.7 hPa NW 1.4 km/h 1.6 km/h 96% 0.0 mm 0 W/m2
21:21 8.2 °C 7.6 °C 1004.7 hPa NW 3.2 km/h 4.8 km/h 96% 0.0 mm 0 W/m2
21:26 8.2 °C 7.6 °C 1004.7 hPa Calm     96% 0.0 mm 0 W/m2
21:31 8.2 °C 7.6 °C 1004.4 hPa Calm   4.8 km/h 96% 0.0 mm 0 W/m2
21:36 8.1 °C 7.7 °C 1004.4 hPa Calm   1.6 km/h 97% 0.0 mm 0 W/m2
21:41 8.1 °C 7.7 °C 1004.7 hPa Calm   4.8 km/h 97% 0.0 mm 0 W/m2
21:46 8.1 °C 7.7 °C 1004.4 hPa Calm     97% 0.0 mm 0 W/m2
21:51 8.1 °C 7.7 °C 1004.4 hPa Calm   4.8 km/h 97% 0.0 mm 0 W/m2
21:56 8.1 °C 7.7 °C 1004.4 hPa Calm     97% 0.0 mm 0 W/m2
22:01 8.1 °C 7.7 °C 1004.4 hPa Calm     97% 0.0 mm 0 W/m2
22:06 8.1 °C 7.7 °C 1004.4 hPa Calm     97% 0.0 mm 0 W/m2
22:11 8.1 °C 7.7 °C 1004.1 hPa Calm     97% 0.0 mm 0 W/m2
22:17 8.1 °C 7.7 °C 1004.1 hPa Calm     97% 0.0 mm 0 W/m2
22:22 8 °C 7.6 °C 1004.1 hPa Calm     97% 0.0 mm 0 W/m2
22:27 7.9 °C 7.5 °C 1004.1 hPa Calm     97% 0.0 mm 0 W/m2
22:32 7.9 °C 7.5 °C 1004.1 hPa Calm     97% 0.0 mm 0 W/m2
22:37 7.9 °C 7.5 °C 1004.1 hPa Calm     97% 0.0 mm 0 W/m2
22:42 7.9 °C 7.5 °C 1004.1 hPa Calm     97% 0.0 mm 0 W/m2
22:47 7.8 °C 7.4 °C 1004.1 hPa Calm     97% 0.0 mm 0 W/m2
22:52 7.8 °C 7.4 °C 1004.1 hPa Calm     97% 0.0 mm 0 W/m2
22:57 7.8 °C 7.4 °C 1004.1 hPa Calm     97% 0.0 mm 0 W/m2
23:02 7.8 °C 7.4 °C 1004.1 hPa Calm     97% 0.0 mm 0 W/m2
23:07 7.7 °C 7.3 °C 1004.1 hPa Calm     97% 0.0 mm 0 W/m2
23:12 7.7 °C 7.3 °C 1004.1 hPa Calm     97% 0.0 mm 0 W/m2
23:17 7.7 °C 7.3 °C 1004.1 hPa Calm     97% 0.0 mm 0 W/m2
23:22 7.7 °C 7.3 °C 1003.7 hPa Calm     97% 0.0 mm 0 W/m2
23:27 7.6 °C 7.2 °C 1003.7 hPa Calm     97% 0.0 mm 0 W/m2
23:32 7.6 °C 7.2 °C 1003.7 hPa Calm     97% 0.0 mm 0 W/m2
23:37 7.6 °C 7.2 °C 1003.7 hPa Calm     97% 0.0 mm 0 W/m2
23:42 7.7 °C 7.3 °C 1003.7 hPa NW 3.2 km/h 3.2 km/h 97% 0.0 mm 0 W/m2
23:47 7.7 °C 7.3 °C 1003.7 hPa Calm   3.2 km/h 97% 0.0 mm 0 W/m2
23:52 7.7 °C 7.3 °C 1003.7 hPa Calm     97% 0.0 mm 0 W/m2
23:57 7.7 °C 7.3 °C 1003.7 hPa Calm   3.2 km/h 97% 0.0 mm 0 W/m2
Juneau County Weather
Compliments of Weather Underground - 4 mb